createdAt,value
2018-05-31T00:00:39.978Z,0.00
2018-05-31T00:01:40.223Z,0.00
2018-05-31T00:02:40.469Z,0.00
2018-05-31T00:03:40.715Z,0.00
2018-05-31T00:04:40.961Z,0.00
2018-05-31T00:05:41.208Z,0.00
2018-05-31T00:06:41.454Z,0.00
2018-05-31T00:07:41.699Z,0.00
2018-05-31T00:08:41.945Z,0.00
2018-05-31T00:09:42.190Z,0.00
2018-05-31T00:10:42.436Z,0.00
2018-05-31T00:11:42.684Z,0.00
2018-05-31T00:12:42.925Z,0.00
2018-05-31T00:13:43.173Z,0.00
2018-05-31T00:14:43.420Z,0.00
2018-05-31T00:15:43.665Z,0.00
2018-05-31T00:16:43.910Z,0.00
2018-05-31T00:17:44.156Z,0.00
2018-05-31T00:18:44.402Z,0.00
2018-05-31T00:19:44.647Z,0.00
2018-05-31T00:20:44.891Z,0.00
2018-05-31T00:21:45.137Z,0.00
2018-05-31T00:22:45.382Z,0.00
2018-05-31T00:23:45.628Z,0.00
2018-05-31T00:24:45.880Z,0.00
2018-05-31T00:25:46.118Z,0.00
2018-05-31T00:26:46.364Z,0.00
2018-05-31T00:27:46.608Z,0.00
2018-05-31T00:28:46.854Z,0.00
2018-05-31T00:29:47.099Z,0.00
2018-05-31T00:30:47.347Z,0.00
2018-05-31T00:31:47.590Z,0.00
2018-05-31T00:32:47.835Z,0.00
2018-05-31T00:33:48.078Z,0.00
2018-05-31T00:34:48.325Z,0.00
2018-05-31T00:35:48.570Z,0.00
2018-05-31T00:36:48.814Z,0.00
2018-05-31T00:37:49.059Z,0.00
2018-05-31T00:38:49.305Z,0.00
2018-05-31T00:39:49.549Z,0.00
2018-05-31T00:40:49.793Z,0.00
2018-05-31T00:41:50.039Z,0.00
2018-05-31T00:42:50.283Z,0.00
2018-05-31T00:43:50.528Z,0.00
2018-05-31T00:44:50.773Z,0.00
2018-05-31T00:45:51.018Z,0.00
2018-05-31T00:46:51.264Z,0.00
2018-05-31T00:47:51.507Z,0.00
2018-05-31T00:48:51.751Z,0.00
2018-05-31T00:49:51.995Z,0.00
2018-05-31T00:50:52.240Z,0.00
2018-05-31T00:51:52.485Z,0.00
2018-05-31T00:52:52.729Z,0.00
2018-05-31T00:53:52.975Z,0.00
2018-05-31T00:54:53.219Z,0.00
2018-05-31T00:55:53.464Z,0.00
2018-05-31T00:56:53.711Z,0.00
2018-05-31T00:57:53.954Z,0.00
2018-05-31T00:58:54.198Z,0.00
2018-05-31T00:59:54.443Z,0.00
2018-05-31T01:00:54.688Z,0.00
2018-05-31T01:01:54.931Z,0.00
2018-05-31T01:02:55.176Z,0.00
2018-05-31T01:03:55.421Z,0.00
2018-05-31T01:04:55.666Z,0.00
2018-05-31T01:05:55.911Z,0.00
2018-05-31T01:06:56.156Z,0.00
2018-05-31T01:07:56.401Z,0.00
2018-05-31T01:08:56.645Z,0.00
2018-05-31T01:09:56.890Z,0.00
2018-05-31T01:10:57.135Z,0.00
2018-05-31T01:11:57.398Z,0.00
2018-05-31T01:12:57.626Z,0.00
2018-05-31T01:13:57.869Z,0.00
2018-05-31T01:14:58.114Z,0.00
2018-05-31T01:15:58.359Z,0.00
2018-05-31T01:16:58.604Z,0.00
2018-05-31T01:17:58.848Z,0.00
2018-05-31T01:18:59.093Z,0.00
2018-05-31T01:19:59.337Z,0.00
2018-05-31T01:20:59.581Z,0.00
2018-05-31T01:21:59.826Z,0.00
2018-05-31T01:23:00.071Z,0.00
2018-05-31T01:24:00.317Z,0.00
2018-05-31T01:25:00.564Z,0.00
2018-05-31T01:26:00.809Z,0.00
2018-05-31T01:27:01.054Z,0.00
2018-05-31T01:28:01.300Z,0.00
2018-05-31T01:29:01.545Z,0.00
2018-05-31T01:30:01.789Z,0.00
2018-05-31T01:31:02.035Z,0.00
2018-05-31T01:32:02.293Z,0.00
2018-05-31T01:33:02.526Z,0.00
2018-05-31T01:34:02.770Z,0.00
2018-05-31T01:35:03.015Z,0.00
2018-05-31T01:36:03.262Z,0.00
2018-05-31T01:37:03.508Z,0.00
2018-05-31T01:38:03.752Z,0.00
2018-05-31T01:39:03.996Z,0.00
2018-05-31T01:40:04.247Z,0.00
2018-05-31T01:41:04.486Z,0.00
2018-05-31T01:42:04.733Z,0.00
2018-05-31T01:43:04.977Z,0.00
2018-05-31T01:44:05.220Z,0.00
2018-05-31T01:45:05.465Z,0.00
2018-05-31T01:46:05.709Z,0.00
2018-05-31T01:47:05.955Z,0.00
2018-05-31T01:48:06.198Z,0.00
2018-05-31T01:49:06.444Z,0.00
2018-05-31T01:50:06.689Z,0.00
2018-05-31T01:51:06.934Z,0.00
2018-05-31T01:52:07.179Z,0.00
2018-05-31T01:53:07.423Z,0.00
2018-05-31T01:54:07.667Z,0.00
2018-05-31T01:55:07.913Z,0.00
2018-05-31T01:56:08.161Z,0.00
2018-05-31T01:57:08.401Z,0.00
2018-05-31T01:58:08.646Z,0.00
2018-05-31T01:59:08.891Z,0.00
2018-05-31T02:00:09.137Z,0.00
2018-05-31T02:01:09.380Z,0.00
2018-05-31T02:02:09.626Z,0.00
2018-05-31T02:03:09.872Z,0.00
2018-05-31T02:04:10.118Z,0.00
2018-05-31T02:05:10.361Z,0.00
2018-05-31T02:06:10.606Z,0.00
2018-05-31T02:07:10.851Z,0.00
2018-05-31T02:08:11.097Z,0.00
2018-05-31T02:09:11.344Z,0.00
2018-05-31T02:10:11.587Z,0.00
2018-05-31T02:11:11.838Z,0.00
2018-05-31T02:12:12.077Z,0.00
2018-05-31T02:13:12.321Z,0.00
2018-05-31T02:14:12.566Z,0.00
2018-05-31T02:15:12.811Z,0.00
2018-05-31T02:16:13.055Z,0.00
2018-05-31T02:17:13.300Z,0.00
2018-05-31T02:18:13.544Z,0.00
2018-05-31T02:19:13.788Z,0.00
2018-05-31T02:20:14.088Z,0.00
2018-05-31T02:21:14.277Z,0.00
2018-05-31T02:22:14.522Z,0.00
2018-05-31T02:23:14.767Z,0.00
2018-05-31T02:24:15.011Z,0.00
2018-05-31T02:25:15.258Z,0.00
2018-05-31T02:26:15.501Z,0.00
2018-05-31T02:27:15.746Z,0.00
2018-05-31T02:28:15.990Z,0.00
2018-05-31T02:29:16.234Z,0.00
2018-05-31T02:30:16.480Z,0.00
2018-05-31T02:31:16.724Z,0.00
2018-05-31T02:32:16.969Z,0.00
2018-05-31T02:33:17.212Z,0.00
2018-05-31T02:34:17.457Z,0.00
2018-05-31T02:35:17.707Z,0.00
2018-05-31T02:36:17.949Z,0.00
2018-05-31T02:37:18.194Z,0.00
2018-05-31T02:38:18.438Z,0.00
2018-05-31T02:39:18.682Z,0.00
2018-05-31T02:40:18.926Z,0.00
2018-05-31T02:41:19.172Z,0.00
2018-05-31T02:42:19.416Z,0.00
2018-05-31T02:43:19.662Z,0.00
2018-05-31T02:44:19.908Z,0.00
2018-05-31T02:45:20.152Z,0.00
2018-05-31T02:46:20.395Z,0.00
2018-05-31T02:47:20.640Z,0.00
2018-05-31T02:48:20.884Z,0.00
2018-05-31T02:49:21.129Z,0.00
2018-05-31T02:50:21.375Z,0.00
2018-05-31T02:51:21.624Z,0.00
2018-05-31T02:52:21.864Z,0.00
2018-05-31T02:53:22.112Z,0.00
2018-05-31T02:54:22.353Z,0.00
2018-05-31T02:55:22.599Z,0.00
2018-05-31T02:56:22.843Z,0.00
2018-05-31T02:57:23.088Z,0.00
2018-05-31T02:58:23.332Z,0.00
2018-05-31T02:59:23.578Z,0.00
2018-05-31T03:00:23.822Z,0.00
2018-05-31T03:01:24.066Z,0.00
2018-05-31T03:02:24.312Z,0.00
2018-05-31T03:03:24.553Z,5.63
2018-05-31T03:04:24.799Z,5.63
2018-05-31T03:05:25.041Z,5.63
2018-05-31T03:06:25.285Z,5.63
2018-05-31T03:07:25.530Z,5.63
2018-05-31T03:08:25.772Z,5.63
2018-05-31T03:09:26.016Z,5.63
2018-05-31T03:10:26.260Z,11.25
2018-05-31T03:11:26.505Z,11.25
2018-05-31T03:12:26.747Z,11.25
2018-05-31T03:13:26.990Z,11.25
2018-05-31T03:14:27.235Z,11.25
2018-05-31T03:15:27.482Z,16.88
2018-05-31T03:16:27.725Z,16.88
2018-05-31T03:17:27.969Z,16.88
2018-05-31T03:18:28.213Z,16.88
2018-05-31T03:19:28.455Z,16.88
2018-05-31T03:20:28.700Z,22.50
2018-05-31T03:21:28.944Z,22.50
2018-05-31T03:22:29.185Z,22.50
2018-05-31T03:23:29.430Z,22.50
2018-05-31T03:24:29.673Z,28.13
2018-05-31T03:25:29.918Z,28.13
2018-05-31T03:26:30.163Z,28.13
2018-05-31T03:27:30.408Z,33.75
2018-05-31T03:28:30.655Z,33.75
2018-05-31T03:29:30.896Z,33.75
2018-05-31T03:30:31.139Z,39.38
2018-05-31T03:31:31.383Z,39.38
2018-05-31T03:32:31.628Z,39.38
2018-05-31T03:33:31.872Z,39.38
2018-05-31T03:34:32.116Z,39.38
2018-05-31T03:35:32.361Z,45.00
2018-05-31T03:36:32.603Z,45.00
2018-05-31T03:37:32.846Z,45.00
2018-05-31T03:38:33.080Z,50.63
2018-05-31T03:39:33.322Z,50.63
2018-05-31T03:40:33.595Z,56.25
2018-05-31T03:41:33.839Z,56.25
2018-05-31T03:42:34.082Z,61.88
2018-05-31T03:43:34.324Z,61.88
2018-05-31T03:44:34.568Z,67.50
2018-05-31T03:45:34.814Z,67.50
2018-05-31T03:46:35.064Z,73.13
2018-05-31T03:47:35.303Z,73.13
2018-05-31T03:48:35.537Z,78.75
2018-05-31T03:49:35.795Z,78.75
2018-05-31T03:50:36.031Z,78.75
2018-05-31T03:51:36.276Z,78.75
2018-05-31T03:52:36.513Z,84.38
2018-05-31T03:53:36.758Z,84.38
2018-05-31T03:54:36.999Z,84.38
2018-05-31T03:55:37.251Z,84.38
2018-05-31T03:56:37.488Z,90.00
2018-05-31T03:57:37.741Z,84.38
2018-05-31T03:58:37.976Z,84.38
2018-05-31T03:59:38.231Z,90.00
2018-05-31T04:00:38.468Z,90.00
2018-05-31T04:01:38.708Z,95.63
2018-05-31T04:02:38.948Z,95.63
2018-05-31T04:03:39.195Z,95.63
2018-05-31T04:04:39.436Z,101.25
2018-05-31T04:05:39.681Z,106.88
2018-05-31T04:06:39.924Z,106.88
2018-05-31T04:07:40.166Z,112.50
2018-05-31T04:08:40.412Z,118.13
2018-05-31T04:09:40.657Z,112.50
2018-05-31T04:10:40.901Z,106.88
2018-05-31T04:11:41.144Z,106.88
2018-05-31T04:12:41.388Z,112.50
2018-05-31T04:13:41.632Z,112.50
2018-05-31T04:14:41.877Z,118.13
2018-05-31T04:15:42.124Z,118.13
2018-05-31T04:16:42.379Z,118.13
2018-05-31T04:17:42.623Z,123.75
2018-05-31T04:18:42.868Z,123.75
2018-05-31T04:19:43.171Z,123.75
2018-05-31T04:20:43.415Z,123.75
2018-05-31T04:21:43.659Z,118.13
2018-05-31T04:22:43.902Z,118.13
2018-05-31T04:23:44.148Z,112.50
2018-05-31T04:24:44.394Z,112.50
2018-05-31T04:25:44.636Z,118.13
2018-05-31T04:26:44.880Z,123.75
2018-05-31T04:27:45.124Z,123.75
2018-05-31T04:28:45.368Z,140.63
2018-05-31T04:29:45.613Z,140.63
2018-05-31T04:30:45.857Z,140.63
2018-05-31T04:31:46.102Z,151.88
2018-05-31T04:32:46.345Z,168.75
2018-05-31T04:33:46.590Z,174.38
2018-05-31T04:34:46.836Z,180.00
2018-05-31T04:35:47.086Z,180.00
2018-05-31T04:36:47.327Z,185.63
2018-05-31T04:37:47.574Z,185.63
2018-05-31T04:38:47.815Z,185.63
2018-05-31T04:39:48.058Z,180.00
2018-05-31T04:40:48.303Z,185.63
2018-05-31T04:41:48.547Z,180.00
2018-05-31T04:42:48.791Z,168.75
2018-05-31T04:43:49.037Z,174.38
2018-05-31T04:44:49.282Z,174.38
2018-05-31T04:45:49.528Z,180.00
2018-05-31T04:46:49.774Z,191.25
2018-05-31T04:47:50.017Z,196.88
2018-05-31T04:48:50.264Z,196.88
2018-05-31T04:49:50.509Z,202.50
2018-05-31T04:50:50.753Z,208.13
2018-05-31T04:51:50.999Z,208.13
2018-05-31T04:52:51.243Z,213.75
2018-05-31T04:53:51.489Z,219.38
2018-05-31T04:54:51.734Z,225.00
2018-05-31T04:55:51.980Z,225.00
2018-05-31T04:56:52.226Z,219.38
2018-05-31T04:57:52.472Z,225.00
2018-05-31T04:58:52.718Z,230.63
2018-05-31T04:59:52.963Z,236.25
2018-05-31T05:00:53.212Z,247.50
2018-05-31T05:01:53.455Z,253.13
2018-05-31T05:02:53.737Z,247.50
2018-05-31T05:03:53.947Z,253.13
2018-05-31T05:04:54.187Z,253.13
2018-05-31T05:05:54.434Z,258.75
2018-05-31T05:06:54.680Z,258.75
2018-05-31T05:07:54.958Z,258.75
2018-05-31T05:08:55.169Z,258.75
2018-05-31T05:09:55.415Z,258.75
2018-05-31T05:10:55.661Z,258.75
2018-05-31T05:11:55.906Z,264.38
2018-05-31T05:12:56.151Z,264.38
2018-05-31T05:13:56.396Z,264.38
2018-05-31T05:14:56.648Z,270.00
2018-05-31T05:15:56.888Z,270.00
2018-05-31T05:16:57.134Z,270.00
2018-05-31T05:17:57.381Z,270.00
2018-05-31T05:18:57.627Z,270.00
2018-05-31T05:19:57.872Z,270.00
2018-05-31T05:20:58.118Z,270.00
2018-05-31T05:21:58.364Z,270.00
2018-05-31T05:22:58.609Z,275.63
2018-05-31T05:23:58.855Z,275.63
2018-05-31T05:24:59.103Z,275.63
2018-05-31T05:25:59.349Z,275.63
2018-05-31T05:26:59.595Z,281.25
2018-05-31T05:27:59.842Z,281.25
2018-05-31T05:29:00.088Z,281.25
2018-05-31T05:30:00.332Z,286.88
2018-05-31T05:31:00.577Z,286.88
2018-05-31T05:32:00.824Z,286.88
2018-05-31T05:33:01.083Z,286.88
2018-05-31T05:34:01.317Z,292.50
2018-05-31T05:35:01.567Z,292.50
2018-05-31T05:36:01.813Z,292.50
2018-05-31T05:37:02.059Z,292.50
2018-05-31T05:38:02.306Z,292.50
2018-05-31T05:39:02.550Z,298.13
2018-05-31T05:40:02.795Z,298.13
2018-05-31T05:41:03.041Z,298.13
2018-05-31T05:42:03.288Z,298.13
2018-05-31T05:43:03.533Z,298.13
2018-05-31T05:44:03.780Z,298.13
2018-05-31T05:45:04.026Z,298.13
2018-05-31T05:46:04.273Z,303.75
2018-05-31T05:47:04.516Z,303.75
2018-05-31T05:48:04.764Z,303.75
2018-05-31T05:49:05.011Z,303.75
2018-05-31T05:50:05.296Z,303.75
2018-05-31T05:51:05.503Z,309.38
2018-05-31T05:52:05.752Z,309.38
2018-05-31T05:53:05.995Z,309.38
2018-05-31T05:54:06.242Z,315.00
2018-05-31T05:55:06.488Z,315.00
2018-05-31T05:56:06.735Z,320.63
2018-05-31T05:57:06.984Z,320.63
2018-05-31T05:58:07.227Z,320.63
2018-05-31T05:59:07.478Z,326.25
2018-05-31T06:00:07.721Z,326.25
2018-05-31T06:01:07.966Z,326.25
2018-05-31T06:02:08.212Z,326.25
2018-05-31T06:03:08.461Z,331.88
2018-05-31T06:04:08.709Z,331.88
2018-05-31T06:05:08.956Z,320.63
2018-05-31T06:06:09.202Z,309.38
2018-05-31T06:07:09.453Z,303.75
2018-05-31T06:08:09.695Z,298.13
2018-05-31T06:09:09.944Z,292.50
2018-05-31T06:10:10.260Z,281.25
2018-05-31T06:11:10.436Z,298.13
2018-05-31T06:12:10.682Z,331.88
2018-05-31T06:13:10.927Z,337.50
2018-05-31T06:14:11.173Z,337.50
2018-05-31T06:15:11.421Z,348.75
2018-05-31T06:16:11.668Z,354.38
2018-05-31T06:17:11.912Z,354.38
2018-05-31T06:18:12.160Z,354.38
2018-05-31T06:19:12.407Z,365.63
2018-05-31T06:20:12.653Z,365.63
2018-05-31T06:21:12.899Z,371.25
2018-05-31T06:22:13.146Z,371.25
2018-05-31T06:23:13.393Z,371.25
2018-05-31T06:24:13.639Z,371.25
2018-05-31T06:25:13.887Z,376.88
2018-05-31T06:26:14.167Z,376.88
2018-05-31T06:27:14.379Z,376.88
2018-05-31T06:28:14.623Z,382.50
2018-05-31T06:29:14.871Z,388.13
2018-05-31T06:30:15.119Z,388.13
2018-05-31T06:31:15.366Z,382.50
2018-05-31T06:32:15.615Z,393.75
2018-05-31T06:33:15.866Z,393.75
2018-05-31T06:34:16.115Z,393.75
2018-05-31T06:35:16.366Z,399.38
2018-05-31T06:36:16.618Z,405.00
2018-05-31T06:37:16.870Z,405.00
2018-05-31T06:38:17.117Z,405.00
2018-05-31T06:39:17.363Z,388.13
2018-05-31T06:40:17.611Z,365.63
2018-05-31T06:41:17.859Z,360.00
2018-05-31T06:42:18.107Z,382.50
2018-05-31T06:43:18.357Z,405.00
2018-05-31T06:44:18.605Z,399.38
2018-05-31T06:45:18.855Z,399.38
2018-05-31T06:46:19.104Z,371.25
2018-05-31T06:47:19.355Z,348.75
2018-05-31T06:48:19.602Z,348.75
2018-05-31T06:49:19.850Z,343.13
2018-05-31T06:50:20.097Z,343.13
2018-05-31T06:51:20.349Z,343.13
2018-05-31T06:52:20.599Z,348.75
2018-05-31T06:53:20.843Z,343.13
2018-05-31T06:54:21.139Z,343.13
2018-05-31T06:55:21.371Z,343.13
2018-05-31T06:56:21.592Z,348.75
2018-05-31T06:57:21.837Z,354.38
2018-05-31T06:58:22.089Z,360.00
2018-05-31T06:59:22.334Z,371.25
2018-05-31T07:00:22.582Z,388.13
2018-05-31T07:01:22.832Z,405.00
2018-05-31T07:02:23.080Z,399.38
2018-05-31T07:03:23.332Z,399.38
2018-05-31T07:04:23.576Z,399.38
2018-05-31T07:05:23.826Z,410.63
2018-05-31T07:06:24.073Z,410.63
2018-05-31T07:07:24.319Z,416.25
2018-05-31T07:08:24.565Z,433.13
2018-05-31T07:09:24.812Z,444.38
2018-05-31T07:10:25.060Z,472.50
2018-05-31T07:11:25.308Z,455.63
2018-05-31T07:12:25.555Z,466.88
2018-05-31T07:13:25.804Z,438.75
2018-05-31T07:14:26.054Z,540.00
2018-05-31T07:15:26.301Z,635.63
2018-05-31T07:16:26.550Z,652.50
2018-05-31T07:17:26.802Z,635.63
2018-05-31T07:18:27.048Z,658.13
2018-05-31T07:19:27.295Z,658.13
2018-05-31T07:20:27.546Z,669.38
2018-05-31T07:21:27.794Z,669.38
2018-05-31T07:22:28.043Z,658.13
2018-05-31T07:23:28.294Z,652.50
2018-05-31T07:24:28.547Z,641.25
2018-05-31T07:25:28.794Z,635.63
2018-05-31T07:26:29.046Z,658.13
2018-05-31T07:27:29.299Z,669.38
2018-05-31T07:28:29.545Z,663.75
2018-05-31T07:29:29.800Z,675.00
2018-05-31T07:30:30.048Z,697.50
2018-05-31T07:31:30.300Z,703.13
2018-05-31T07:32:30.551Z,714.38
2018-05-31T07:33:30.803Z,708.75
2018-05-31T07:34:31.057Z,714.38
2018-05-31T07:35:31.305Z,714.38
2018-05-31T07:36:31.556Z,720.00
2018-05-31T07:37:31.807Z,714.38
2018-05-31T07:38:32.059Z,720.00
2018-05-31T07:39:32.312Z,720.00
2018-05-31T07:40:32.564Z,725.63
2018-05-31T07:41:32.829Z,725.63
2018-05-31T07:42:33.069Z,731.25
2018-05-31T07:43:33.323Z,720.00
2018-05-31T07:44:33.577Z,731.25
2018-05-31T07:45:33.829Z,736.88
2018-05-31T07:46:34.084Z,759.38
2018-05-31T07:47:34.338Z,748.13
2018-05-31T07:48:34.593Z,765.00
2018-05-31T07:49:34.867Z,776.25
2018-05-31T07:50:35.127Z,793.13
2018-05-31T07:51:35.379Z,804.38
2018-05-31T07:52:35.633Z,821.25
2018-05-31T07:53:35.888Z,838.13
2018-05-31T07:54:36.140Z,871.88
2018-05-31T07:55:36.395Z,888.75
2018-05-31T07:56:36.650Z,922.50
2018-05-31T07:57:36.902Z,945.00
2018-05-31T07:58:37.157Z,973.13
2018-05-31T07:59:37.411Z,984.38
2018-05-31T08:00:37.665Z,1006.88
2018-05-31T08:01:37.922Z,1023.75
2018-05-31T08:02:38.178Z,1051.88
2018-05-31T08:03:38.430Z,1051.88
2018-05-31T08:04:38.684Z,1074.38
2018-05-31T08:05:38.991Z,1029.38
2018-05-31T08:06:39.196Z,1057.50
2018-05-31T08:07:39.450Z,1051.88
2018-05-31T08:08:39.830Z,1074.38
2018-05-31T08:09:40.091Z,1096.88
2018-05-31T08:10:40.349Z,1113.75
2018-05-31T08:11:40.607Z,1113.75
2018-05-31T08:12:40.865Z,1119.38
2018-05-31T08:13:41.125Z,1130.63
2018-05-31T08:14:41.382Z,1136.25
2018-05-31T08:15:41.641Z,1147.50
2018-05-31T08:16:41.900Z,1158.75
2018-05-31T08:17:42.159Z,1170.00
2018-05-31T08:18:42.415Z,1175.63
2018-05-31T08:19:42.671Z,1192.50
2018-05-31T08:20:42.947Z,1203.75
2018-05-31T08:21:43.180Z,1231.88
2018-05-31T08:22:43.435Z,1215.00
2018-05-31T08:23:43.729Z,1220.63
2018-05-31T08:24:43.988Z,1254.38
2018-05-31T08:25:44.273Z,1265.63
2018-05-31T08:26:44.528Z,1299.38
2018-05-31T08:27:44.813Z,1316.25
2018-05-31T08:28:45.072Z,1310.63
2018-05-31T08:29:45.328Z,1237.50
2018-05-31T08:30:45.589Z,1119.38
2018-05-31T08:31:45.914Z,1057.50
2018-05-31T08:32:46.177Z,1018.13
2018-05-31T08:33:46.431Z,1012.50
2018-05-31T08:34:46.707Z,1001.25
2018-05-31T08:35:46.972Z,1001.25
2018-05-31T08:36:47.271Z,990.00
2018-05-31T08:37:47.532Z,990.00
2018-05-31T08:38:47.820Z,984.38
2018-05-31T08:39:48.100Z,973.13
2018-05-31T08:40:48.356Z,956.25
2018-05-31T08:41:48.611Z,950.63
2018-05-31T08:42:48.939Z,945.00
2018-05-31T08:43:49.196Z,945.00
2018-05-31T08:44:49.455Z,939.38
2018-05-31T08:45:49.709Z,933.75
2018-05-31T08:46:49.974Z,939.38
2018-05-31T08:47:50.219Z,939.38
2018-05-31T08:48:50.580Z,939.38
2018-05-31T08:49:50.839Z,945.00
2018-05-31T08:50:51.099Z,928.13
2018-05-31T08:51:51.353Z,928.13
2018-05-31T08:52:51.672Z,922.50
2018-05-31T08:53:51.927Z,916.88
2018-05-31T08:54:52.225Z,916.88
2018-05-31T08:55:52.483Z,916.88
2018-05-31T08:56:52.750Z,911.25
2018-05-31T08:57:53.034Z,916.88
2018-05-31T08:58:53.469Z,950.63
2018-05-31T08:59:53.756Z,922.50
2018-05-31T09:00:54.063Z,922.50
2018-05-31T09:01:54.357Z,928.13
2018-05-31T09:02:54.612Z,928.13
2018-05-31T09:03:54.903Z,933.75
2018-05-31T09:04:55.176Z,939.38
2018-05-31T09:05:55.432Z,933.75
2018-05-31T09:06:55.729Z,933.75
2018-05-31T09:07:55.992Z,939.38
2018-05-31T09:08:56.242Z,939.38
2018-05-31T09:09:56.495Z,939.38
2018-05-31T09:10:56.752Z,933.75
2018-05-31T09:11:57.009Z,939.38
2018-05-31T09:12:57.275Z,945.00
2018-05-31T09:13:57.527Z,945.00
2018-05-31T09:14:57.783Z,950.63
2018-05-31T09:15:58.062Z,956.25
2018-05-31T09:16:58.322Z,961.88
2018-05-31T09:17:58.581Z,967.50
2018-05-31T09:18:58.891Z,973.13
2018-05-31T09:19:59.155Z,973.13
2018-05-31T09:20:59.409Z,978.75
2018-05-31T09:21:59.673Z,984.38
2018-05-31T09:22:59.920Z,990.00
2018-05-31T09:24:00.215Z,990.00
2018-05-31T09:25:00.530Z,995.63
2018-05-31T09:26:00.789Z,995.63
2018-05-31T09:27:01.130Z,1001.25
2018-05-31T09:28:01.390Z,1001.25
2018-05-31T09:29:01.647Z,1006.88
2018-05-31T09:30:01.933Z,1012.50
2018-05-31T09:31:02.250Z,1012.50
2018-05-31T09:32:02.511Z,1018.13
2018-05-31T09:33:02.766Z,1023.75
2018-05-31T09:34:03.115Z,1029.38
2018-05-31T09:35:03.473Z,1040.63
2018-05-31T09:36:03.699Z,1035.00
2018-05-31T09:37:04.002Z,1040.63
2018-05-31T09:38:04.214Z,1046.25
2018-05-31T09:39:04.472Z,1046.25
2018-05-31T09:40:04.730Z,1063.13
2018-05-31T09:41:04.994Z,1063.13
2018-05-31T09:42:05.244Z,1063.13
2018-05-31T09:43:05.502Z,1068.75
2018-05-31T09:44:05.760Z,1068.75
2018-05-31T09:45:06.017Z,1063.13
2018-05-31T09:46:06.279Z,1068.75
2018-05-31T09:47:06.534Z,1091.25
2018-05-31T09:48:06.793Z,1113.75
2018-05-31T09:49:07.049Z,1136.25
2018-05-31T09:50:07.346Z,1096.88
2018-05-31T09:51:07.639Z,1181.25
2018-05-31T09:52:07.874Z,1473.75
2018-05-31T09:53:08.131Z,1766.25
2018-05-31T09:54:08.385Z,1878.75
2018-05-31T09:55:08.641Z,1957.50
2018-05-31T09:56:08.898Z,2053.13
2018-05-31T09:57:09.148Z,2171.25
2018-05-31T09:58:09.463Z,2210.63
2018-05-31T09:59:09.658Z,2289.38
2018-05-31T10:00:09.908Z,2362.50
2018-05-31T10:01:10.163Z,2407.50
2018-05-31T10:02:10.421Z,2368.13
2018-05-31T10:03:10.677Z,2356.88
2018-05-31T10:04:10.922Z,2278.13
2018-05-31T10:05:11.224Z,2469.38
2018-05-31T10:06:11.439Z,2514.38
2018-05-31T10:07:11.704Z,2581.88
2018-05-31T10:08:11.961Z,2683.13
2018-05-31T10:09:12.229Z,2733.75
2018-05-31T10:10:12.479Z,2784.38
2018-05-31T10:11:12.787Z,2823.75
2018-05-31T10:12:12.981Z,2857.50
2018-05-31T10:13:13.240Z,2835.00
2018-05-31T10:14:13.506Z,2790.00
2018-05-31T10:15:13.758Z,2880.00
2018-05-31T10:16:14.021Z,2874.38
2018-05-31T10:17:14.298Z,2874.38
2018-05-31T10:18:14.557Z,2868.75
2018-05-31T10:19:14.815Z,2851.88
2018-05-31T10:20:15.074Z,1760.63
2018-05-31T10:21:15.334Z,1203.75
2018-05-31T10:22:15.594Z,1203.75
2018-05-31T10:23:15.855Z,1580.63
2018-05-31T10:24:16.167Z,2593.13
2018-05-31T10:25:16.438Z,2958.75
2018-05-31T10:26:16.679Z,2925.00
2018-05-31T10:27:16.938Z,1906.88
2018-05-31T10:28:17.205Z,1698.75
2018-05-31T10:29:17.457Z,2958.75
2018-05-31T10:30:17.718Z,1771.88
2018-05-31T10:31:17.978Z,3015.00
2018-05-31T10:32:18.237Z,1192.50
2018-05-31T10:33:18.508Z,2958.75
2018-05-31T10:34:18.758Z,1203.75
2018-05-31T10:35:19.018Z,1175.63
2018-05-31T10:36:19.276Z,2818.13
2018-05-31T10:37:19.537Z,1209.38
2018-05-31T10:38:19.797Z,1243.13
2018-05-31T10:39:20.055Z,973.13
2018-05-31T10:40:20.316Z,1068.75
2018-05-31T10:41:20.573Z,1293.75
2018-05-31T10:42:20.835Z,2953.13
2018-05-31T10:43:21.096Z,2503.13
2018-05-31T10:44:21.386Z,3048.75
2018-05-31T10:45:21.642Z,2086.88
2018-05-31T10:46:21.953Z,1006.88
2018-05-31T10:47:22.577Z,871.88
2018-05-31T10:48:22.375Z,849.38
2018-05-31T10:49:22.637Z,860.63
2018-05-31T10:50:22.902Z,1006.88
2018-05-31T10:51:23.160Z,922.50
2018-05-31T10:52:23.418Z,1513.13
2018-05-31T10:53:23.677Z,1209.38
2018-05-31T10:54:23.935Z,978.75
2018-05-31T10:55:24.195Z,1091.25
2018-05-31T10:56:24.453Z,2188.13
2018-05-31T10:57:24.711Z,2525.63
2018-05-31T10:58:24.967Z,1918.13
2018-05-31T10:59:25.237Z,1316.25
2018-05-31T11:00:25.488Z,1085.63
2018-05-31T11:01:25.747Z,1096.88
2018-05-31T11:02:26.004Z,1535.63
2018-05-31T11:03:26.259Z,1468.13
2018-05-31T11:04:26.515Z,1175.63
2018-05-31T11:05:26.788Z,1198.13
2018-05-31T11:06:27.032Z,1338.75
2018-05-31T11:07:27.291Z,1237.50
2018-05-31T11:08:27.537Z,1265.63
2018-05-31T11:09:27.796Z,2233.13
2018-05-31T11:10:28.051Z,1676.25
2018-05-31T11:11:28.313Z,1468.13
2018-05-31T11:12:28.567Z,1710.00
2018-05-31T11:13:28.822Z,2418.75
2018-05-31T11:14:29.076Z,2964.38
2018-05-31T11:15:29.341Z,2953.13
2018-05-31T11:16:29.616Z,2992.50
2018-05-31T11:17:29.852Z,2615.63
2018-05-31T11:18:30.113Z,2171.25
2018-05-31T11:19:30.363Z,2311.88
2018-05-31T11:20:30.624Z,2295.00
2018-05-31T11:21:30.868Z,3031.88
2018-05-31T11:22:31.124Z,3065.63
2018-05-31T11:23:31.388Z,3099.38
2018-05-31T11:24:31.630Z,3110.63
2018-05-31T11:25:31.888Z,3121.88
2018-05-31T11:26:32.146Z,3116.25
2018-05-31T11:27:32.406Z,3031.88
2018-05-31T11:28:32.662Z,2761.88
2018-05-31T11:29:32.921Z,2846.25
2018-05-31T11:30:33.179Z,2863.13
2018-05-31T11:31:33.436Z,2975.63
2018-05-31T11:32:33.697Z,2986.88
2018-05-31T11:33:33.954Z,2941.88
2018-05-31T11:34:34.211Z,2930.63
2018-05-31T11:35:34.475Z,2908.13
2018-05-31T11:36:34.734Z,2908.13
2018-05-31T11:37:34.987Z,2851.88
2018-05-31T11:38:35.248Z,2581.88
2018-05-31T11:39:35.504Z,2227.50
2018-05-31T11:40:35.764Z,1890.00
2018-05-31T11:41:36.029Z,1597.50
2018-05-31T11:42:36.277Z,1485.00
2018-05-31T11:43:36.534Z,1445.63
2018-05-31T11:44:36.793Z,1428.75
2018-05-31T11:45:37.050Z,1423.13
2018-05-31T11:46:37.311Z,1428.75
2018-05-31T11:47:37.563Z,1423.13
2018-05-31T11:48:37.822Z,1406.25
2018-05-31T11:49:38.080Z,1389.38
2018-05-31T11:50:38.338Z,1372.50
2018-05-31T11:51:38.596Z,1378.13
2018-05-31T11:52:38.854Z,1366.88
2018-05-31T11:53:39.113Z,1378.13
2018-05-31T11:54:39.373Z,1383.75
2018-05-31T11:55:39.629Z,1389.38
2018-05-31T11:56:39.889Z,1417.50
2018-05-31T11:57:40.147Z,1456.88
2018-05-31T11:58:40.406Z,1496.25
2018-05-31T11:59:40.664Z,1524.38
2018-05-31T12:00:40.928Z,1479.38
2018-05-31T12:01:41.197Z,1490.63
2018-05-31T12:02:41.453Z,1248.75
2018-05-31T12:03:41.744Z,1338.75
2018-05-31T12:04:41.957Z,1271.25
2018-05-31T12:05:42.216Z,1327.50
2018-05-31T12:06:42.474Z,1248.75
2018-05-31T12:07:42.740Z,1411.88
2018-05-31T12:08:42.993Z,1389.38
2018-05-31T12:09:43.252Z,1372.50
2018-05-31T12:10:43.539Z,1355.63
2018-05-31T12:11:43.787Z,1344.38
2018-05-31T12:12:44.041Z,1355.63
2018-05-31T12:13:44.302Z,1333.13
2018-05-31T12:14:44.560Z,1293.75
2018-05-31T12:15:55.162Z,1260.00
2018-05-31T12:16:45.190Z,1035.00
2018-05-31T12:17:45.436Z,950.63
2018-05-31T12:18:45.694Z,866.25
2018-05-31T12:19:45.952Z,843.75
2018-05-31T12:20:46.207Z,832.50
2018-05-31T12:21:46.464Z,826.88
2018-05-31T12:22:46.725Z,832.50
2018-05-31T12:23:46.986Z,860.63
2018-05-31T12:24:47.236Z,900.00
2018-05-31T12:25:47.501Z,916.88
2018-05-31T12:26:47.772Z,939.38
2018-05-31T12:27:48.002Z,967.50
2018-05-31T12:28:48.255Z,1006.88
2018-05-31T12:29:48.531Z,1035.00
2018-05-31T12:30:48.763Z,1057.50
2018-05-31T12:31:49.017Z,1035.00
2018-05-31T12:32:49.294Z,1035.00
2018-05-31T12:33:49.531Z,1046.25
2018-05-31T12:34:49.788Z,1040.63
2018-05-31T12:35:50.036Z,1035.00
2018-05-31T12:36:50.279Z,1023.75
2018-05-31T12:37:50.542Z,1029.38
2018-05-31T12:38:50.793Z,1023.75